sensor_id;sensor_type;location;lat;lon;timestamp;pressure;altitude;pressure_sealevel;temperature
13219;BMP180;6674;49.152;11.918;2023-08-07T00:01:38;95345.78;;;12.17
13219;BMP180;6674;49.152;11.918;2023-08-07T00:04:04;95339.56;;;12.18
13219;BMP180;6674;49.152;11.918;2023-08-07T00:06:31;95340.63;;;12.17
13219;BMP180;6674;49.152;11.918;2023-08-07T00:08:59;95340.13;;;12.20
13219;BMP180;6674;49.152;11.918;2023-08-07T00:11:26;95332.63;;;12.18
13219;BMP180;6674;49.152;11.918;2023-08-07T00:13:53;95342.41;;;12.16
13219;BMP180;6674;49.152;11.918;2023-08-07T00:16:20;95340.31;;;12.13
13219;BMP180;6674;49.152;11.918;2023-08-07T00:18:47;95340.31;;;12.13
13219;BMP180;6674;49.152;11.918;2023-08-07T00:21:13;95327.00;;;12.05
13219;BMP180;6674;49.152;11.918;2023-08-07T00:23:40;95334.75;;;12.05
13219;BMP180;6674;49.152;11.918;2023-08-07T00:26:08;95327.56;;;12.07
13219;BMP180;6674;49.152;11.918;2023-08-07T00:28:34;95325.44;;;12.04
13219;BMP180;6674;49.152;11.918;2023-08-07T00:31:01;95328.56;;;12.06
13219;BMP180;6674;49.152;11.918;2023-08-07T00:33:27;95333.13;;;11.99
13219;BMP180;6674;49.152;11.918;2023-08-07T00:35:54;95321.75;;;12.00
13219;BMP180;6674;49.152;11.918;2023-08-07T00:38:22;95336.72;;;11.98
13219;BMP180;6674;49.152;11.918;2023-08-07T00:40:49;95332.34;;;11.99
13219;BMP180;6674;49.152;11.918;2023-08-07T00:43:18;95329.38;;;11.90
13219;BMP180;6674;49.152;11.918;2023-08-07T00:45:46;95323.97;;;11.92
13219;BMP180;6674;49.152;11.918;2023-08-07T00:48:14;95331.97;;;11.90
13219;BMP180;6674;49.152;11.918;2023-08-07T00:50:44;95323.28;;;11.96
13219;BMP180;6674;49.152;11.918;2023-08-07T00:53:12;95335.81;;;11.88
13219;BMP180;6674;49.152;11.918;2023-08-07T00:55:39;95326.72;;;11.85
13219;BMP180;6674;49.152;11.918;2023-08-07T00:58:06;95331.72;;;11.92
13219;BMP180;6674;49.152;11.918;2023-08-07T01:00:35;95324.44;;;11.89
13219;BMP180;6674;49.152;11.918;2023-08-07T01:03:04;95339.19;;;11.88
13219;BMP180;6674;49.152;11.918;2023-08-07T01:05:31;95333.25;;;11.88
13219;BMP180;6674;49.152;11.918;2023-08-07T01:07:58;95334.56;;;11.90
13219;BMP180;6674;49.152;11.918;2023-08-07T01:10:30;95343.19;;;11.79
13219;BMP180;6674;49.152;11.918;2023-08-07T01:13:05;95341.69;;;11.83
13219;BMP180;6674;49.152;11.918;2023-08-07T01:15:36;95336.59;;;11.88
13219;BMP180;6674;49.152;11.918;2023-08-07T01:18:06;95330.34;;;11.84
13219;BMP180;6674;49.152;11.918;2023-08-07T01:20:33;95350.53;;;11.87
13219;BMP180;6674;49.152;11.918;2023-08-07T01:23:01;95348.19;;;11.86
13219;BMP180;6674;49.152;11.918;2023-08-07T01:25:28;95334.56;;;11.90
13219;BMP180;6674;49.152;11.918;2023-08-07T01:28:02;95343.19;;;11.96
13219;BMP180;6674;49.152;11.918;2023-08-07T01:30:33;95335.25;;;11.86
13219;BMP180;6674;49.152;11.918;2023-08-07T01:33:09;95343.00;;;11.86
13219;BMP180;6674;49.152;11.918;2023-08-07T01:35:40;95339.41;;;11.87
13219;BMP180;6674;49.152;11.918;2023-08-07T01:38:10;95339.59;;;11.80
13219;BMP180;6674;49.152;11.918;2023-08-07T01:40:37;95344.28;;;11.83
13219;BMP180;6674;49.152;11.918;2023-08-07T01:43:05;95339.03;;;11.78
13219;BMP180;6674;49.152;11.918;2023-08-07T01:45:32;95352.13;;;11.72
13219;BMP180;6674;49.152;11.918;2023-08-07T01:47:59;95342.72;;;11.82
13219;BMP180;6674;49.152;11.918;2023-08-07T01:50:25;95339.59;;;11.80
13219;BMP180;6674;49.152;11.918;2023-08-07T01:52:53;95346.25;;;11.76
13219;BMP180;6674;49.152;11.918;2023-08-07T01:55:45;95340.53;;;11.74
13219;BMP180;6674;49.152;11.918;2023-08-07T01:58:12;95346.78;;;11.78
13219;BMP180;6674;49.152;11.918;2023-08-07T02:00:38;95352.75;;;11.79
13219;BMP180;6674;49.152;11.918;2023-08-07T02:03:05;95352.44;;;11.75
13219;BMP180;6674;49.152;11.918;2023-08-07T02:05:32;95364.28;;;11.71
13219;BMP180;6674;49.152;11.918;2023-08-07T02:07:58;95357.84;;;11.74
13219;BMP180;6674;49.152;11.918;2023-08-07T02:10:25;95352.97;;;11.77
13219;BMP180;6674;49.152;11.918;2023-08-07T02:12:57;95355.25;;;11.74
13219;BMP180;6674;49.152;11.918;2023-08-07T02:15:24;95356.69;;;11.65
13219;BMP180;6674;49.152;11.918;2023-08-07T02:17:50;95370.44;;;11.70
13219;BMP180;6674;49.152;11.918;2023-08-07T02:20:17;95374.09;;;11.74
13219;BMP180;6674;49.152;11.918;2023-08-07T02:22:44;95363.53;;;11.76
13219;BMP180;6674;49.152;11.918;2023-08-07T02:25:10;95371.16;;;11.66
13219;BMP180;6674;49.152;11.918;2023-08-07T02:27:37;95366.94;;;11.60
13219;BMP180;6674;49.152;11.918;2023-08-07T02:30:06;95370.13;;;11.67
13219;BMP180;6674;49.152;11.918;2023-08-07T02:32:33;95382.97;;;11.62
13219;BMP180;6674;49.152;11.918;2023-08-07T02:35:00;95362.31;;;11.62
13219;BMP180;6674;49.152;11.918;2023-08-07T02:37:26;95363.38;;;11.66
13219;BMP180;6674;49.152;11.918;2023-08-07T02:39:53;95371.28;;;11.60
13219;BMP180;6674;49.152;11.918;2023-08-07T02:42:20;95374.53;;;11.66
13219;BMP180;6674;49.152;11.918;2023-08-07T02:44:46;95378.59;;;11.63
13219;BMP180;6674;49.152;11.918;2023-08-07T02:47:14;95364.81;;;11.57
13219;BMP180;6674;49.152;11.918;2023-08-07T02:49:41;95377.56;;;11.63
13219;BMP180;6674;49.152;11.918;2023-08-07T02:52:07;95374.34;;;11.57
13219;BMP180;6674;49.152;11.918;2023-08-07T02:54:34;95379.44;;;11.52
13219;BMP180;6674;49.152;11.918;2023-08-07T02:57:01;95389.84;;;11.57
13219;BMP180;6674;49.152;11.918;2023-08-07T02:59:27;95377.50;;;11.59
13219;BMP180;6674;49.152;11.918;2023-08-07T03:01:56;95395.00;;;11.57
13219;BMP180;6674;49.152;11.918;2023-08-07T03:04:24;95405.84;;;11.54
13219;BMP180;6674;49.152;11.918;2023-08-07T03:06:50;95389.00;;;11.51
13219;BMP180;6674;49.152;11.918;2023-08-07T03:09:17;95395.00;;;11.57
13219;BMP180;6674;49.152;11.918;2023-08-07T03:11:44;95397.03;;;11.55
13219;BMP180;6674;49.152;11.918;2023-08-07T03:14:12;95404.88;;;11.60
13219;BMP180;6674;49.152;11.918;2023-08-07T03:16:39;95420.38;;;11.60
13219;BMP180;6674;49.152;11.918;2023-08-07T03:19:05;95412.53;;;11.55
13219;BMP180;6674;49.152;11.918;2023-08-07T03:21:33;95419.59;;;11.59
13219;BMP180;6674;49.152;11.918;2023-08-07T03:24:00;95426.72;;;11.52
13219;BMP180;6674;49.152;11.918;2023-08-07T03:26:27;95438.84;;;11.52
13219;BMP180;6674;49.152;11.918;2023-08-07T03:28:53;95429.44;;;11.46
13219;BMP180;6674;49.152;11.918;2023-08-07T03:31:20;95433.44;;;11.53
13219;BMP180;6674;49.152;11.918;2023-08-07T03:33:46;95428.84;;;11.55
13219;BMP180;6674;49.152;11.918;2023-08-07T03:36:14;95440.25;;;11.59
13219;BMP180;6674;49.152;11.918;2023-08-07T03:38:42;95430.78;;;11.64
13219;BMP180;6674;49.152;11.918;2023-08-07T03:41:09;95448.16;;;11.53
13219;BMP180;6674;49.152;11.918;2023-08-07T03:43:35;95445.13;;;11.56
13219;BMP180;6674;49.152;11.918;2023-08-07T03:46:02;95441.50;;;11.57
13219;BMP180;6674;49.152;11.918;2023-08-07T03:48:29;95444.00;;;11.52
13219;BMP180;6674;49.152;11.918;2023-08-07T03:51:02;95445.56;;;11.53
13219;BMP180;6674;49.152;11.918;2023-08-07T03:53:28;95448.50;;;11.45
13219;BMP180;6674;49.152;11.918;2023-08-07T03:55:56;95453.91;;;11.43
13219;BMP180;6674;49.152;11.918;2023-08-07T03:58:23;95447.88;;;11.38
13219;BMP180;6674;49.152;11.918;2023-08-07T04:00:51;95465.59;;;11.46
13219;BMP180;6674;49.152;11.918;2023-08-07T04:03:19;95466.56;;;11.45
13219;BMP180;6674;49.152;11.918;2023-08-07T04:05:45;95460.16;;;11.31
13219;BMP180;6674;49.152;11.918;2023-08-07T04:08:13;95473.22;;;11.41
13219;BMP180;6674;49.152;11.918;2023-08-07T04:10:40;95471.19;;;11.43
13219;BMP180;6674;49.152;11.918;2023-08-07T04:13:08;95481.53;;;11.43
13219;BMP180;6674;49.152;11.918;2023-08-07T04:15:34;95484.47;;;11.46
13219;BMP180;6674;49.152;11.918;2023-08-07T04:18:01;95483.09;;;11.44
13219;BMP180;6674;49.152;11.918;2023-08-07T04:20:28;95481.53;;;11.43
13219;BMP180;6674;49.152;11.918;2023-08-07T04:22:54;95481.22;;;11.39
13219;BMP180;6674;49.152;11.918;2023-08-07T04:25:21;95496.47;;;11.41
13219;BMP180;6674;49.152;11.918;2023-08-07T04:27:48;95498.38;;;11.34
13219;BMP180;6674;49.152;11.918;2023-08-07T04:30:16;95509.84;;;11.38
13219;BMP180;6674;49.152;11.918;2023-08-07T04:32:42;95500.75;;;11.35
13219;BMP180;6674;49.152;11.918;2023-08-07T04:35:09;95504.91;;;11.36
13219;BMP180;6674;49.152;11.918;2023-08-07T04:37:36;95508.72;;;11.34
13219;BMP180;6674;49.152;11.918;2023-08-07T04:40:03;95512.44;;;11.38
13219;BMP180;6674;49.152;11.918;2023-08-07T04:42:31;95509.84;;;11.38
13219;BMP180;6674;49.152;11.918;2023-08-07T04:44:58;95516.94;;;11.31
13219;BMP180;6674;49.152;11.918;2023-08-07T04:47:27;95511.56;;;11.32
13219;BMP180;6674;49.152;11.918;2023-08-07T04:49:53;95520.53;;;11.30
13219;BMP180;6674;49.152;11.918;2023-08-07T04:52:20;95526.34;;;11.37
13219;BMP180;6674;49.152;11.918;2023-08-07T04:54:47;95532.06;;;11.39
13219;BMP180;6674;49.152;11.918;2023-08-07T04:57:14;95519.53;;;11.31
13219;BMP180;6674;49.152;11.918;2023-08-07T04:59:40;95525.34;;;11.38
13219;BMP180;6674;49.152;11.918;2023-08-07T05:02:07;95525.00;;;11.34
13219;BMP180;6674;49.152;11.918;2023-08-07T05:04:35;95532.22;;;11.32
13219;BMP180;6674;49.152;11.918;2023-08-07T05:07:01;95537.78;;;11.41
13219;BMP180;6674;49.152;11.918;2023-08-07T05:09:28;95529.72;;;11.37
13219;BMP180;6674;49.152;11.918;2023-08-07T05:11:55;95541.28;;;11.35
13219;BMP180;6674;49.152;11.918;2023-08-07T05:14:22;95542.53;;;11.32
13219;BMP180;6674;49.152;11.918;2023-08-07T05:16:48;95544.78;;;11.29
13219;BMP180;6674;49.152;11.918;2023-08-07T05:19:15;95553.28;;;11.41
13219;BMP180;6674;49.152;11.918;2023-08-07T05:21:46;95557.69;;;11.29
13219;BMP180;6674;49.152;11.918;2023-08-07T05:24:15;95553.09;;;11.31
13219;BMP180;6674;49.152;11.918;2023-08-07T05:26:42;95559.03;;;11.31
13219;BMP180;6674;49.152;11.918;2023-08-07T05:29:08;95564.78;;;11.22
13219;BMP180;6674;49.152;11.918;2023-08-07T05:31:35;95567.22;;;11.28
13219;BMP180;6674;49.152;11.918;2023-08-07T05:34:02;95564.53;;;11.35
13219;BMP180;6674;49.152;11.918;2023-08-07T05:36:29;95565.19;;;11.30
13219;BMP180;6674;49.152;11.918;2023-08-07T05:38:59;95574.97;;;11.28
13219;BMP180;6674;49.152;11.918;2023-08-07T05:41:26;95580.38;;;11.27
13219;BMP180;6674;49.152;11.918;2023-08-07T05:43:53;95569.91;;;11.33
13219;BMP180;6674;49.152;11.918;2023-08-07T05:46:20;95572.06;;;11.25
13219;BMP180;6674;49.152;11.918;2023-08-07T05:48:46;95588.09;;;11.27
13219;BMP180;6674;49.152;11.918;2023-08-07T05:51:13;95587.09;;;11.28
13219;BMP180;6674;49.152;11.918;2023-08-07T05:53:40;95588.00;;;11.22
13219;BMP180;6674;49.152;11.918;2023-08-07T05:56:08;95588.53;;;11.35
13219;BMP180;6674;49.152;11.918;2023-08-07T05:58:34;95585.53;;;11.27
13219;BMP180;6674;49.152;11.918;2023-08-07T06:01:01;95603.34;;;11.40
13219;BMP180;6674;49.152;11.918;2023-08-07T06:03:27;95609.19;;;11.35
13219;BMP180;6674;49.152;11.918;2023-08-07T06:05:54;95592.72;;;11.25
13219;BMP180;6674;49.152;11.918;2023-08-07T06:08:21;95595.66;;;11.17
13219;BMP180;6674;49.152;11.918;2023-08-07T06:10:47;95598.53;;;11.32
13219;BMP180;6674;49.152;11.918;2023-08-07T06:13:15;95594.19;;;11.32
13219;BMP180;6674;49.152;11.918;2023-08-07T06:15:42;95609.31;;;11.29
13219;BMP180;6674;49.152;11.918;2023-08-07T06:18:08;95602.16;;;11.31
13219;BMP180;6674;49.152;11.918;2023-08-07T06:20:35;95615.50;;;11.28
13219;BMP180;6674;49.152;11.918;2023-08-07T06:23:02;95613.56;;;11.35
13219;BMP180;6674;49.152;11.918;2023-08-07T06:25:28;95613.34;;;11.36
13219;BMP180;6674;49.152;11.918;2023-08-07T06:27:55;95626.59;;;11.28
13219;BMP180;6674;49.152;11.918;2023-08-07T06:30:23;95617.63;;;11.31
13219;BMP180;6674;49.152;11.918;2023-08-07T06:32:50;95617.06;;;11.29
13219;BMP180;6674;49.152;11.918;2023-08-07T06:35:16;95621.53;;;11.33
13219;BMP180;6674;49.152;11.918;2023-08-07T06:37:43;95620.66;;;11.28
13219;BMP180;6674;49.152;11.918;2023-08-07T06:40:10;95623.81;;;11.30
13219;BMP180;6674;49.152;11.918;2023-08-07T06:42:39;95628.16;;;11.41
13219;BMP180;6674;49.152;11.918;2023-08-07T06:45:07;95625.25;;;11.37
13219;BMP180;6674;49.152;11.918;2023-08-07T06:47:35;95627.03;;;11.37
13219;BMP180;6674;49.152;11.918;2023-08-07T06:50:01;95631.53;;;11.30
13219;BMP180;6674;49.152;11.918;2023-08-07T06:52:28;95641.75;;;11.36
13219;BMP180;6674;49.152;11.918;2023-08-07T06:54:54;95639.16;;;11.36
13219;BMP180;6674;49.152;11.918;2023-08-07T06:57:21;95647.81;;;11.42
13219;BMP180;6674;49.152;11.918;2023-08-07T06:59:48;95648.25;;;11.27
13219;BMP180;6674;49.152;11.918;2023-08-07T07:02:14;95644.13;;;11.38
13219;BMP180;6674;49.152;11.918;2023-08-07T07:04:42;95657.69;;;11.33
13219;BMP180;6674;49.152;11.918;2023-08-07T07:07:09;95659.84;;;11.48
13219;BMP180;6674;49.152;11.918;2023-08-07T07:09:35;95644.03;;;11.21
13219;BMP180;6674;49.152;11.918;2023-08-07T07:12:03;95657.25;;;11.25
13219;BMP180;6674;49.152;11.918;2023-08-07T07:14:31;95650.84;;;11.39
13219;BMP180;6674;49.152;11.918;2023-08-07T07:16:58;95661.41;;;11.37
13219;BMP180;6674;49.152;11.918;2023-08-07T07:19:25;95674.09;;;11.27
13219;BMP180;6674;49.152;11.918;2023-08-07T07:21:53;95676.00;;;11.32
13219;BMP180;6674;49.152;11.918;2023-08-07T07:24:19;95670.94;;;11.37
13219;BMP180;6674;49.152;11.918;2023-08-07T07:26:46;95665.44;;;11.45
13219;BMP180;6674;49.152;11.918;2023-08-07T07:29:12;95663.88;;;11.44
13219;BMP180;6674;49.152;11.918;2023-08-07T07:31:39;95675.66;;;11.40
13219;BMP180;6674;49.152;11.918;2023-08-07T07:34:06;95677.13;;;11.36
13219;BMP180;6674;49.152;11.918;2023-08-07T07:36:32;95676.09;;;11.37
13219;BMP180;6674;49.152;11.918;2023-08-07T07:39:00;95697.19;;;11.45
13219;BMP180;6674;49.152;11.918;2023-08-07T07:41:27;95682.31;;;11.47
13219;BMP180;6674;49.152;11.918;2023-08-07T07:43:54;95689.69;;;11.44
13219;BMP180;6674;49.152;11.918;2023-08-07T07:46:22;95705.09;;;11.50
13219;BMP180;6674;49.152;11.918;2023-08-07T07:48:48;95705.19;;;11.44
13219;BMP180;6674;49.152;11.918;2023-08-07T07:51:15;95715.19;;;11.52
13219;BMP180;6674;49.152;11.918;2023-08-07T07:53:42;95703.06;;;11.52
13219;BMP180;6674;49.152;11.918;2023-08-07T07:56:10;95704.16;;;11.45
13219;BMP180;6674;49.152;11.918;2023-08-07T07:58:36;95725.59;;;11.34
13219;BMP180;6674;49.152;11.918;2023-08-07T08:01:03;95726.31;;;11.41
13219;BMP180;6674;49.152;11.918;2023-08-07T08:03:29;95720.59;;;11.39
13219;BMP180;6674;49.152;11.918;2023-08-07T08:05:56;95729.88;;;11.28
13219;BMP180;6674;49.152;11.918;2023-08-07T08:08:23;95739.53;;;11.33
13219;BMP180;6674;49.152;11.918;2023-08-07T08:10:49;95733.03;;;11.42
13219;BMP180;6674;49.152;11.918;2023-08-07T08:13:18;95736.63;;;11.41
13219;BMP180;6674;49.152;11.918;2023-08-07T08:15:45;95744.38;;;11.41
13219;BMP180;6674;49.152;11.918;2023-08-07T08:18:12;95737.63;;;11.40
13219;BMP180;6674;49.152;11.918;2023-08-07T08:20:38;95749.69;;;11.46
13219;BMP180;6674;49.152;11.918;2023-08-07T08:23:05;95748.06;;;11.45
13219;BMP180;6674;49.152;11.918;2023-08-07T08:25:32;95751.94;;;11.54
13219;BMP180;6674;49.152;11.918;2023-08-07T08:27:59;95744.50;;;11.46
13219;BMP180;6674;49.152;11.918;2023-08-07T08:30:28;95762.91;;;11.38
13219;BMP180;6674;49.152;11.918;2023-08-07T08:32:55;95759.56;;;11.49
13219;BMP180;6674;49.152;11.918;2023-08-07T08:35:22;95756.41;;;11.47
13219;BMP180;6674;49.152;11.918;2023-08-07T08:37:48;95773.66;;;11.35
13219;BMP180;6674;49.152;11.918;2023-08-07T08:40:15;95769.75;;;11.32
13219;BMP180;6674;49.152;11.918;2023-08-07T08:42:45;95762.22;;;11.31
13219;BMP180;6674;49.152;11.918;2023-08-07T08:45:14;95779.28;;;11.32
13219;BMP180;6674;49.152;11.918;2023-08-07T08:47:42;95788.63;;;11.44
13219;BMP180;6674;49.152;11.918;2023-08-07T08:50:11;95788.28;;;11.41
13219;BMP180;6674;49.152;11.918;2023-08-07T08:52:42;95786.25;;;11.43
13219;BMP180;6674;49.152;11.918;2023-08-07T08:55:09;95791.41;;;11.43
13219;BMP180;6674;49.152;11.918;2023-08-07T08:57:37;95783.88;;;11.41
13219;BMP180;6674;49.152;11.918;2023-08-07T09:00:05;95796.72;;;11.48
13219;BMP180;6674;49.152;11.918;2023-08-07T09:02:45;95796.16;;;11.46
13219;BMP180;6674;49.152;11.918;2023-08-07T09:05:14;95805.84;;;11.50
13219;BMP180;6674;49.152;11.918;2023-08-07T09:07:43;95797.72;;;11.47
13219;BMP180;6674;49.152;11.918;2023-08-07T09:10:13;95804.59;;;11.53
13219;BMP180;6674;49.152;11.918;2023-08-07T09:12:45;95804.03;;;11.51
13219;BMP180;6674;49.152;11.918;2023-08-07T09:15:16;95823.00;;;11.56
13219;BMP180;6674;49.152;11.918;2023-08-07T09:17:45;95821.09;;;11.52
13219;BMP180;6674;49.152;11.918;2023-08-07T09:20:12;95816.72;;;11.52
13219;BMP180;6674;49.152;11.918;2023-08-07T09:22:40;95827.63;;;11.65
13219;BMP180;6674;49.152;11.918;2023-08-07T09:25:08;95833.44;;;11.50
13219;BMP180;6674;49.152;11.918;2023-08-07T09:27:36;95830.19;;;11.54
13219;BMP180;6674;49.152;11.918;2023-08-07T09:30:05;95831.91;;;11.60
13219;BMP180;6674;49.152;11.918;2023-08-07T09:32:33;95824.91;;;11.61
13219;BMP180;6674;49.152;11.918;2023-08-07T09:35:02;95833.56;;;11.55
13219;BMP180;6674;49.152;11.918;2023-08-07T09:37:30;95838.84;;;11.60
13219;BMP180;6674;49.152;11.918;2023-08-07T09:39:59;95839.28;;;11.57
13219;BMP180;6674;49.152;11.918;2023-08-07T09:42:30;95847.38;;;11.49
13219;BMP180;6674;49.152;11.918;2023-08-07T09:44:59;95856.25;;;11.53
13219;BMP180;6674;49.152;11.918;2023-08-07T09:47:27;95859.72;;;11.47
13219;BMP180;6674;49.152;11.918;2023-08-07T09:49:54;95858.94;;;11.58
13219;BMP180;6674;49.152;11.918;2023-08-07T09:52:24;95854.56;;;11.58
13219;BMP180;6674;49.152;11.918;2023-08-07T09:54:51;95859.41;;;11.66
13219;BMP180;6674;49.152;11.918;2023-08-07T09:57:17;95862.09;;;11.60
13219;BMP180;6674;49.152;11.918;2023-08-07T09:59:49;95857.84;;;11.65
13219;BMP180;6674;49.152;11.918;2023-08-07T10:02:16;95861.75;;;11.67
13219;BMP180;6674;49.152;11.918;2023-08-07T10:04:43;95870.66;;;11.71
13219;BMP180;6674;49.152;11.918;2023-08-07T10:07:11;95863.69;;;11.72
13219;BMP180;6674;49.152;11.918;2023-08-07T10:09:42;95869.94;;;11.64
13219;BMP180;6674;49.152;11.918;2023-08-07T10:12:09;95862.09;;;11.71
13219;BMP180;6674;49.152;11.918;2023-08-07T10:14:36;95869.63;;;11.72
13219;BMP180;6674;49.152;11.918;2023-08-07T10:17:03;95876.81;;;11.70
13219;BMP180;6674;49.152;11.918;2023-08-07T10:19:32;95878.53;;;11.76
13219;BMP180;6674;49.152;11.918;2023-08-07T10:22:00;95864.44;;;11.72
13219;BMP180;6674;49.152;11.918;2023-08-07T10:24:28;95868.28;;;11.81
13219;BMP180;6674;49.152;11.918;2023-08-07T10:26:57;95871.00;;;11.86
13219;BMP180;6674;49.152;11.918;2023-08-07T10:29:26;95873.56;;;11.98
13219;BMP180;6674;49.152;11.918;2023-08-07T10:31:55;95887.16;;;11.93
13219;BMP180;6674;49.152;11.918;2023-08-07T10:34:22;95876.59;;;11.95
13219;BMP180;6674;49.152;11.918;2023-08-07T10:36:49;95875.59;;;11.84
13219;BMP180;6674;49.152;11.918;2023-08-07T10:39:17;95883.25;;;12.02
13219;BMP180;6674;49.152;11.918;2023-08-07T10:41:45;95885.34;;;12.05
13219;BMP180;6674;49.152;11.918;2023-08-07T10:44:21;95891.56;;;11.93
13219;BMP180;6674;49.152;11.918;2023-08-07T10:46:49;95882.31;;;12.08
13219;BMP180;6674;49.152;11.918;2023-08-07T10:49:30;95880.41;;;12.15
13219;BMP180;6674;49.152;11.918;2023-08-07T10:51:57;95890.75;;;12.15
13219;BMP180;6674;49.152;11.918;2023-08-07T10:54:24;95888.28;;;12.08
13219;BMP180;6674;49.152;11.918;2023-08-07T10:56:52;95892.66;;;12.08
13219;BMP180;6674;49.152;11.918;2023-08-07T10:59:20;95891.88;;;11.96
13219;BMP180;6674;49.152;11.918;2023-08-07T11:01:51;95899.75;;;12.01
13219;BMP180;6674;49.152;11.918;2023-08-07T11:04:18;95878.97;;;12.07
13219;BMP180;6674;49.152;11.918;2023-08-07T11:06:47;95883.25;;;12.02
13219;BMP180;6674;49.152;11.918;2023-08-07T11:09:17;95883.25;;;12.13
13219;BMP180;6674;49.152;11.918;2023-08-07T11:11:45;95883.78;;;12.04
13219;BMP180;6674;49.152;11.918;2023-08-07T11:14:13;95886.16;;;12.06
13219;BMP180;6674;49.152;11.918;2023-08-07T11:16:45;95888.03;;;12.10
13219;BMP180;6674;49.152;11.918;2023-08-07T11:19:14;95878.28;;;12.12
13219;BMP180;6674;49.152;11.918;2023-08-07T11:21:42;95894.69;;;12.17
13219;BMP180;6674;49.152;11.918;2023-08-07T11:24:12;95881.75;;;12.17
13219;BMP180;6674;49.152;11.918;2023-08-07T11:26:39;95900.31;;;12.03
13219;BMP180;6674;49.152;11.918;2023-08-07T11:29:06;95885.13;;;12.18
13219;BMP180;6674;49.152;11.918;2023-08-07T11:31:33;95891.78;;;12.14
13219;BMP180;6674;49.152;11.918;2023-08-07T11:34:01;95892.31;;;12.27
13219;BMP180;6674;49.152;11.918;2023-08-07T11:36:28;95901.56;;;12.12
13219;BMP180;6674;49.152;11.918;2023-08-07T11:38:57;95897.81;;;12.19
13219;BMP180;6674;49.152;11.918;2023-08-07T11:41:23;95889.31;;;12.07
13219;BMP180;6674;49.152;11.918;2023-08-07T11:43:50;95892.97;;;12.23
13219;BMP180;6674;49.152;11.918;2023-08-07T11:46:16;95897.28;;;12.06
13219;BMP180;6674;49.152;11.918;2023-08-07T11:48:44;95907.50;;;12.12
13219;BMP180;6674;49.152;11.918;2023-08-07T11:51:12;95899.53;;;12.14
13219;BMP180;6674;49.152;11.918;2023-08-07T11:53:40;95918.63;;;11.90
13219;BMP180;6674;49.152;11.918;2023-08-07T11:56:08;95897.16;;;12.01
13219;BMP180;6674;49.152;11.918;2023-08-07T11:58:39;95900.63;;;12.06
13219;BMP180;6674;49.152;11.918;2023-08-07T12:01:09;95910.75;;;12.08
13219;BMP180;6674;49.152;11.918;2023-08-07T12:03:38;95913.13;;;12.09
13219;BMP180;6674;49.152;11.918;2023-08-07T12:06:06;95915.72;;;12.09
13219;BMP180;6674;49.152;11.918;2023-08-07T12:08:35;95916.72;;;12.08
13219;BMP180;6674;49.152;11.918;2023-08-07T12:11:03;95918.84;;;12.23
13219;BMP180;6674;49.152;11.918;2023-08-07T12:13:31;95910.97;;;12.18
13219;BMP180;6674;49.152;11.918;2023-08-07T12:16:00;95915.47;;;12.22
13219;BMP180;6674;49.152;11.918;2023-08-07T12:18:29;95909.31;;;12.23
13219;BMP180;6674;49.152;11.918;2023-08-07T12:20:59;95915.03;;;12.25
13219;BMP180;6674;49.152;11.918;2023-08-07T12:23:27;95927.19;;;12.25
13219;BMP180;6674;49.152;11.918;2023-08-07T12:25:55;95928.19;;;12.35
13219;BMP180;6674;49.152;11.918;2023-08-07T12:28:21;95916.56;;;12.38
13219;BMP180;6674;49.152;11.918;2023-08-07T12:30:48;95929.41;;;12.33
13219;BMP180;6674;49.152;11.918;2023-08-07T12:33:17;95920.84;;;12.44
13219;BMP180;6674;49.152;11.918;2023-08-07T12:35:44;95927.63;;;12.45
13219;BMP180;6674;49.152;11.918;2023-08-07T12:38:10;95927.63;;;12.45
13219;BMP180;6674;49.152;11.918;2023-08-07T12:40:39;95934.66;;;12.49
13219;BMP180;6674;49.152;11.918;2023-08-07T12:43:07;95918.50;;;12.42
13219;BMP180;6674;49.152;11.918;2023-08-07T12:45:34;95931.84;;;12.50
13219;BMP180;6674;49.152;11.918;2023-08-07T12:48:00;95945.28;;;12.48
13219;BMP180;6674;49.152;11.918;2023-08-07T12:50:28;95934.09;;;12.58
13219;BMP180;6674;49.152;11.918;2023-08-07T12:52:55;95939.38;;;12.63
13219;BMP180;6674;49.152;11.918;2023-08-07T12:55:22;95939.84;;;12.49
13219;BMP180;6674;49.152;11.918;2023-08-07T12:57:48;95942.53;;;12.54
13219;BMP180;6674;49.152;11.918;2023-08-07T13:00:17;95944.91;;;12.44
13219;BMP180;6674;49.152;11.918;2023-08-07T13:02:45;95938.41;;;12.42
13219;BMP180;6674;49.152;11.918;2023-08-07T13:05:12;95929.75;;;12.48
13219;BMP180;6674;49.152;11.918;2023-08-07T13:07:40;95953.38;;;12.51
13219;BMP180;6674;49.152;11.918;2023-08-07T13:10:08;95946.94;;;12.53
13219;BMP180;6674;49.152;11.918;2023-08-07T13:12:38;95949.38;;;12.71
13219;BMP180;6674;49.152;11.918;2023-08-07T13:15:07;95959.31;;;12.51
13219;BMP180;6674;49.152;11.918;2023-08-07T13:17:35;95964.81;;;12.66
13219;BMP180;6674;49.152;11.918;2023-08-07T13:20:03;95962.22;;;12.66
13219;BMP180;6674;49.152;11.918;2023-08-07T13:22:33;95966.28;;;12.62
13219;BMP180;6674;49.152;11.918;2023-08-07T13:25:00;95962.66;;;12.63
13219;BMP180;6674;49.152;11.918;2023-08-07T13:27:28;95970.09;;;12.71
13219;BMP180;6674;49.152;11.918;2023-08-07T13:29:54;95965.59;;;12.55
13219;BMP180;6674;49.152;11.918;2023-08-07T13:32:22;95962.66;;;12.63
13219;BMP180;6674;49.152;11.918;2023-08-07T13:34:50;95964.13;;;12.71
13219;BMP180;6674;49.152;11.918;2023-08-07T13:37:17;95965.13;;;12.81
13219;BMP180;6674;49.152;11.918;2023-08-07T13:39:43;95965.13;;;12.81
13219;BMP180;6674;49.152;11.918;2023-08-07T13:42:10;95967.38;;;12.89
13219;BMP180;6674;49.152;11.918;2023-08-07T13:44:36;95971.78;;;12.89
13219;BMP180;6674;49.152;11.918;2023-08-07T13:47:04;95976.03;;;12.94
13219;BMP180;6674;49.152;11.918;2023-08-07T13:49:31;95981.69;;;12.92
13219;BMP180;6674;49.152;11.918;2023-08-07T13:52:01;95972.69;;;12.83
13219;BMP180;6674;49.152;11.918;2023-08-07T13:54:28;95984.38;;;12.96
13219;BMP180;6674;49.152;11.918;2023-08-07T13:56:55;95988.28;;;12.99
13219;BMP180;6674;49.152;11.918;2023-08-07T13:59:21;96001.34;;;13.04
13219;BMP180;6674;49.152;11.918;2023-08-07T14:01:48;96003.16;;;12.92
13219;BMP180;6674;49.152;11.918;2023-08-07T14:04:15;96001.69;;;12.96
13219;BMP180;6674;49.152;11.918;2023-08-07T14:06:42;95993.34;;;13.05
13219;BMP180;6674;49.152;11.918;2023-08-07T14:09:11;96004.81;;;13.09
13219;BMP180;6674;49.152;11.918;2023-08-07T14:11:39;96005.38;;;13.11